Time;durP1;ratioP1;P1;durP2;ratioP2;P2;SDS_P1;SDS_P2;PMS_P1;PMS_P2;Temp;Humidity;BMP_temperature;BMP_pressure;BME280_temperature;BME280_humidity;BME280_pressure;Samples;Min_cycle;Max_cycle;Signal;HPM_P1;HPM_P2
2022/06/02 00:01:21;;;;;;;3.00;1.30;;;20.80;54.00;;;;;;5034963;28;20064;-60
2022/06/02 00:04:18;;;;;;;1.60;1.30;;;20.80;54.10;;;;;;5034861;28;20176;-60
2022/06/02 00:06:56;;;;;;;1.40;1.30;;;20.80;54.00;;;;;;5034222;28;20671;-61
2022/06/02 00:09:46;;;;;;;1.52;1.42;;;20.80;54.00;;;;;;5032298;28;20041;-61
2022/06/02 00:12:48;;;;;;;1.48;1.38;;;20.80;53.90;;;;;;5034934;28;20052;-60
2022/06/02 00:15:16;;;;;;;1.77;1.48;;;20.80;53.90;;;;;;5032755;28;20182;-61
2022/06/02 00:18:03;;;;;;;1.38;1.25;;;20.80;54.00;;;;;;5034467;28;20045;-60
2022/06/02 00:20:44;;;;;;;1.40;1.27;;;20.80;53.80;;;;;;5034597;28;20041;-60
2022/06/02 00:23:31;;;;;;;1.50;1.20;;;20.80;53.80;;;;;;5033961;28;20037;-62
2022/06/02 00:26:00;;;;;;;1.75;1.25;;;20.80;53.70;;;;;;5032685;28;20040;-60
2022/06/02 00:28:46;;;;;;;1.42;1.33;;;20.80;53.80;;;;;;5032767;28;20754;-61
2022/06/02 00:31:14;;;;;;;1.40;1.27;;;20.80;53.60;;;;;;5034395;28;20068;-61
2022/06/02 00:33:45;;;;;;;1.30;1.20;;;20.80;53.70;;;;;;5035233;28;20045;-60
2022/06/02 00:36:31;;;;;;;1.23;1.13;;;20.80;53.60;;;;;;5034685;28;20041;-61
2022/06/02 00:38:59;;;;;;;1.23;1.13;;;20.80;53.50;;;;;;5035940;28;20045;-60
2022/06/02 00:41:34;;;;;;;1.55;1.30;;;20.80;53.50;;;;;;5035504;28;20164;-61
2022/06/02 00:44:15;;;;;;;1.60;1.50;;;20.80;53.50;;;;;;5024988;28;20044;-62
2022/06/02 00:46:50;;;;;;;1.27;1.17;;;20.80;53.40;;;;;;5033382;28;20052;-60
2022/06/02 00:49:43;;;;;;;2.30;1.40;;;20.80;53.40;;;;;;5034956;28;20179;-61
2022/06/02 00:52:25;;;;;;;1.35;1.20;;;20.80;53.30;;;;;;5036030;28;20033;-61
2022/06/02 00:58:14;;;;;;;1.52;1.13;;;20.70;53.30;;;;;;5033663;28;20175;-61
2022/06/02 01:00:53;;;;;;;1.55;1.45;;;20.70;53.20;;;;;;5034620;28;20044;-61
2022/06/02 01:03:24;;;;;;;1.50;1.40;;;20.70;53.20;;;;;;5034615;28;20088;-60
2022/06/02 01:06:08;;;;;;;1.70;1.30;;;20.70;53.20;;;;;;5034268;28;20040;-60
2022/06/02 01:08:37;;;;;;;1.30;1.20;;;20.70;53.10;;;;;;5034813;28;20123;-60
2022/06/02 01:11:28;;;;;;;1.40;1.20;;;20.70;53.10;;;;;;5039012;28;20041;-60
2022/06/02 01:14:34;;;;;;;1.15;1.02;;;20.70;53.00;;;;;;5037256;28;20473;-59
2022/06/02 01:17:18;;;;;;;1.35;1.25;;;20.70;53.10;;;;;;4977787;28;20053;-61
2022/06/02 01:20:03;;;;;;;1.23;1.13;;;20.70;53.00;;;;;;5039665;28;20041;-60
2022/06/02 01:22:44;;;;;;;1.10;1.02;;;20.70;53.00;;;;;;5038263;28;20504;-61
2022/06/02 01:25:26;;;;;;;2.92;1.30;;;20.70;53.00;;;;;;5038256;28;20033;-60
2022/06/02 01:27:51;;;;;;;1.40;1.25;;;20.70;52.90;;;;;;5034897;28;20136;-61
2022/06/02 01:30:42;;;;;;;1.30;1.20;;;20.70;52.90;;;;;;5038756;28;20395;-61
2022/06/02 01:33:36;;;;;;;1.50;1.20;;;20.70;52.90;;;;;;5038531;28;20139;-60
2022/06/02 01:36:10;;;;;;;1.30;1.20;;;20.70;52.70;;;;;;5036949;28;20622;-60
2022/06/02 01:38:51;;;;;;;1.38;1.17;;;20.70;52.80;;;;;;5032684;28;20041;-60
2022/06/02 01:41:26;;;;;;;1.10;1.10;;;20.70;52.70;;;;;;5037687;28;20190;-61
2022/06/02 01:44:13;;;;;;;1.83;1.33;;;20.70;52.70;;;;;;5036347;28;20400;-61
2022/06/02 01:46:42;;;;;;;1.65;1.40;;;20.60;52.60;;;;;;5020517;28;20037;-59
2022/06/02 01:49:52;;;;;;;1.27;1.17;;;20.60;52.60;;;;;;5039091;28;20128;-60
2022/06/02 01:52:23;;;;;;;1.30;1.20;;;20.60;52.50;;;;;;5035837;28;20528;-62
2022/06/02 01:55:23;;;;;;;1.23;1.15;;;20.60;52.50;;;;;;5034902;28;20051;-60
2022/06/02 01:58:24;;;;;;;1.20;1.10;;;20.70;52.50;;;;;;5037397;28;20045;-60
2022/06/02 02:01:10;;;;;;;1.20;1.10;;;20.60;52.40;;;;;;5034794;28;20038;-60
2022/06/02 02:03:46;;;;;;;2.40;1.13;;;20.60;52.40;;;;;;5032100;28;20040;-60
2022/06/02 02:06:53;;;;;;;1.23;1.13;;;20.60;52.40;;;;;;5035517;28;20033;-61
2022/06/02 02:09:22;;;;;;;1.20;1.10;;;20.60;52.30;;;;;;5005722;28;20151;-60
2022/06/02 02:11:56;;;;;;;1.17;1.10;;;20.60;52.40;;;;;;5038188;28;20048;-62
2022/06/02 02:14:51;;;;;;;1.40;1.30;;;20.60;52.40;;;;;;5035900;28;20084;-61
2022/06/02 02:17:16;;;;;;;1.20;1.10;;;20.60;52.20;;;;;;5036526;28;20214;-62
2022/06/02 02:20:01;;;;;;;1.30;1.20;;;20.60;52.30;;;;;;5034417;28;20051;-60
2022/06/02 02:23:10;;;;;;;1.33;1.23;;;20.60;52.20;;;;;;5036331;28;20037;-61
2022/06/02 02:25:53;;;;;;;1.20;1.10;;;20.60;52.10;;;;;;4944055;28;20031;-60
2022/06/02 02:28:44;;;;;;;0.88;0.88;;;20.60;52.20;;;;;;5033499;28;20371;-60
2022/06/02 02:31:09;;;;;;;1.20;1.10;;;20.60;52.10;;;;;;5039423;28;20461;-62
2022/06/02 02:33:53;;;;;;;1.63;1.15;;;20.60;52.20;;;;;;5036301;28;20145;-61
2022/06/02 02:36:36;;;;;;;1.50;1.40;;;20.60;52.00;;;;;;5037041;28;20480;-60
2022/06/02 02:39:31;;;;;;;1.30;1.20;;;20.60;52.00;;;;;;5036845;28;20049;-61
2022/06/02 02:42:04;;;;;;;0.95;0.95;;;20.60;52.00;;;;;;5033550;28;20044;-60
2022/06/02 02:45:08;;;;;;;1.33;1.23;;;20.60;52.00;;;;;;5035624;28;20041;-61
2022/06/02 02:47:45;;;;;;;1.40;1.20;;;20.60;51.90;;;;;;5039142;28;20072;-60
2022/06/02 02:50:21;;;;;;;1.00;1.00;;;20.50;51.90;;;;;;5036260;28;20128;-60
2022/06/02 02:53:11;;;;;;;1.10;1.00;;;20.50;52.00;;;;;;5036867;28;20519;-60
2022/06/02 02:55:44;;;;;;;1.33;1.20;;;20.50;51.80;;;;;;5036934;28;20697;-60
2022/06/02 02:58:32;;;;;;;0.90;0.90;;;20.50;51.90;;;;;;5035773;28;20052;-61
2022/06/02 03:01:07;;;;;;;1.88;1.10;;;20.50;51.80;;;;;;5034912;28;20052;-60
2022/06/02 03:03:39;;;;;;;1.20;1.10;;;20.50;51.80;;;;;;5034537;28;20493;-61
2022/06/02 03:06:20;;;;;;;0.90;0.90;;;20.50;51.80;;;;;;5016321;28;20067;-60
2022/06/02 03:09:17;;;;;;;1.15;1.10;;;20.50;51.70;;;;;;5035335;28;20378;-60
2022/06/02 03:11:58;;;;;;;1.23;1.13;;;20.50;51.60;;;;;;5036900;28;20072;-61
2022/06/02 03:14:53;;;;;;;1.67;1.23;;;20.50;51.70;;;;;;5035904;28;20037;-60
2022/06/02 03:17:38;;;;;;;1.35;1.25;;;20.50;51.70;;;;;;5033304;28;20061;-59
2022/06/02 03:21:01;;;;;;;1.30;1.20;;;20.50;51.60;;;;;;5035629;28;20603;-60
2022/06/02 03:23:46;;;;;;;1.45;1.35;;;20.50;51.60;;;;;;4955108;28;20042;-61
2022/06/02 03:26:23;;;;;;;1.02;1.02;;;20.50;51.60;;;;;;4955054;28;20043;-61
2022/06/02 03:29:16;;;;;;;3.58;1.30;;;20.50;51.60;;;;;;5008479;28;20048;-61
2022/06/02 03:32:00;;;;;;;0.95;0.80;;;20.50;51.60;;;;;;5034950;28;20041;-61
2022/06/02 03:34:36;;;;;;;1.25;1.15;;;20.50;51.60;;;;;;5036916;28;20041;-60
2022/06/02 03:37:09;;;;;;;1.20;1.10;;;20.50;51.50;;;;;;5018872;28;20124;-60
2022/06/02 03:40:14;;;;;;;1.13;1.13;;;20.50;51.40;;;;;;5035255;28;20037;-62
2022/06/02 03:42:57;;;;;;;1.30;1.20;;;20.50;51.40;;;;;;4986292;28;20135;-59
2022/06/02 03:45:40;;;;;;;1.20;1.10;;;20.50;51.40;;;;;;5035145;28;20048;-61
2022/06/02 03:48:25;;;;;;;1.13;1.13;;;20.50;51.40;;;;;;5035759;28;20445;-61
2022/06/02 03:51:15;;;;;;;1.08;1.08;;;20.50;51.30;;;;;;5035334;28;20131;-60
2022/06/02 03:54:05;;;;;;;1.10;1.00;;;20.50;51.30;;;;;;5033873;28;20041;-61
2022/06/02 03:56:59;;;;;;;1.20;1.10;;;20.50;51.30;;;;;;5032906;28;20342;-61
2022/06/02 03:59:53;;;;;;;0.90;0.90;;;20.50;51.20;;;;;;5033711;28;20426;-60
2022/06/02 04:02:31;;;;;;;0.95;0.95;;;20.50;51.20;;;;;;5033397;28;20290;-62
2022/06/02 04:05:13;;;;;;;1.10;1.00;;;20.50;51.20;;;;;;5033557;28;20041;-60
2022/06/02 04:07:51;;;;;;;1.10;1.00;;;20.50;51.10;;;;;;5024638;28;20091;-62
2022/06/02 04:10:38;;;;;;;1.02;1.00;;;20.40;51.10;;;;;;5034829;28;20064;-60
2022/06/02 04:13:42;;;;;;;0.90;0.90;;;20.40;51.10;;;;;;5033849;28;20041;-61
2022/06/02 04:16:10;;;;;;;1.35;1.15;;;20.40;51.00;;;;;;4957506;28;20193;-61
2022/06/02 04:19:00;;;;;;;0.90;0.90;;;20.40;51.00;;;;;;5020709;28;20080;-61
2022/06/02 04:21:52;;;;;;;1.33;0.90;;;20.40;50.90;;;;;;5035953;28;20481;-61
2022/06/02 04:24:37;;;;;;;1.00;0.90;;;20.40;50.90;;;;;;5034647;28;20288;-60
2022/06/02 04:27:13;;;;;;;0.80;0.80;;;20.40;51.00;;;;;;5034447;28;20069;-60
2022/06/02 04:29:52;;;;;;;0.90;0.90;;;20.40;51.00;;;;;;5034914;28;20094;-60
2022/06/02 04:32:39;;;;;;;1.15;1.08;;;20.40;51.00;;;;;;5033980;28;20114;-60
2022/06/02 04:35:29;;;;;;;0.90;0.90;;;20.40;50.80;;;;;;5036816;28;20045;-61
2022/06/02 04:38:16;;;;;;;0.98;0.88;;;20.40;50.80;;;;;;5035457;28;20178;-60
2022/06/02 04:41:11;;;;;;;4.30;0.93;;;20.40;51.00;;;;;;5034396;28;20123;-60
2022/06/02 04:43:47;;;;;;;3.22;0.80;;;20.40;51.00;;;;;;5034385;28;20133;-60
2022/06/02 04:46:39;;;;;;;0.98;0.90;;;20.40;51.10;;;;;;5033767;28;20095;-60
2022/06/02 04:49:23;;;;;;;2.03;0.75;;;20.40;51.10;;;;;;5034540;28;20034;-60
2022/06/02 04:52:04;;;;;;;4.43;1.45;;;20.40;51.10;;;;;;5033711;28;20047;-61
2022/06/02 04:54:30;;;;;;;2.50;0.90;;;20.40;51.10;;;;;;5033680;28;20037;-61
2022/06/02 04:57:27;;;;;;;2.92;1.10;;;20.40;51.10;;;;;;5033697;28;20045;-60
2022/06/02 05:00:23;;;;;;;1.88;1.08;;;20.40;51.00;;;;;;5033635;28;20143;-60
2022/06/02 05:03:09;;;;;;;1.20;1.10;;;20.40;51.10;;;;;;5033600;28;20041;-60
2022/06/02 05:05:47;;;;;;;2.80;1.13;;;20.40;51.10;;;;;;5018008;28;20393;-60
2022/06/02 05:08:58;;;;;;;1.58;0.98;;;20.40;51.10;;;;;;5034559;28;20120;-63
2022/06/02 05:12:00;;;;;;;0.93;0.93;;;20.40;51.00;;;;;;5035716;28;20087;-63
2022/06/02 05:14:34;;;;;;;1.63;1.17;;;20.40;51.10;;;;;;5035143;28;20045;-63
2022/06/02 05:17:40;;;;;;;1.20;1.02;;;20.40;51.10;;;;;;5034824;28;20087;-62
2022/06/02 05:20:59;;;;;;;2.47;1.00;;;20.40;51.00;;;;;;5035475;28;20029;-60
2022/06/02 05:23:55;;;;;;;2.80;1.10;;;20.40;51.10;;;;;;4974368;28;20502;-61
2022/06/02 05:26:56;;;;;;;1.17;1.08;;;20.40;51.20;;;;;;5033732;28;20038;-63
2022/06/02 05:29:22;;;;;;;0.90;0.90;;;20.40;51.30;;;;;;5034645;28;20038;-63
2022/06/02 05:32:05;;;;;;;2.63;1.33;;;20.40;51.30;;;;;;5033647;28;20048;-62
2022/06/02 05:34:56;;;;;;;1.52;0.90;;;20.50;51.40;;;;;;5033789;28;20037;-62
2022/06/02 05:37:40;;;;;;;0.80;0.70;;;20.50;51.40;;;;;;5035674;28;20427;-62
2022/06/02 05:40:20;;;;;;;3.13;1.00;;;20.50;51.40;;;;;;5033371;28;20096;-62
2022/06/02 05:42:57;;;;;;;0.73;0.73;;;20.50;51.40;;;;;;5034572;28;20037;-61
2022/06/02 05:45:56;;;;;;;1.40;0.80;;;20.50;51.40;;;;;;5033765;28;20045;-62
2022/06/02 05:49:03;;;;;;;2.13;0.77;;;20.50;51.50;;;;;;5036227;28;20094;-64
2022/06/02 05:52:07;;;;;;;1.50;0.90;;;20.50;51.50;;;;;;5035241;28;20136;-62
2022/06/02 05:54:51;;;;;;;2.42;1.25;;;20.50;51.50;;;;;;5015710;28;20047;-61
2022/06/02 05:57:33;;;;;;;1.42;0.68;;;20.50;51.50;;;;;;5038104;28;20648;-62
2022/06/02 06:00:20;;;;;;;1.48;0.98;;;20.50;51.60;;;;;;5035764;28;20037;-62
2022/06/02 06:02:58;;;;;;;0.70;0.70;;;20.50;51.50;;;;;;5035833;28;20053;-64
2022/06/02 06:05:35;;;;;;;1.05;0.95;;;20.50;51.50;;;;;;5038308;28;20531;-61
2022/06/02 06:08:19;;;;;;;0.95;0.70;;;20.50;51.60;;;;;;5035719;28;20108;-62
2022/06/02 06:10:53;;;;;;;0.77;0.77;;;20.50;51.60;;;;;;5038097;28;20562;-62
2022/06/02 06:13:45;;;;;;;1.85;0.98;;;20.50;51.60;;;;;;5037484;28;20037;-64
2022/06/02 06:16:30;;;;;;;1.45;0.77;;;20.50;51.60;;;;;;5038067;28;20049;-61
2022/06/02 06:19:06;;;;;;;0.73;0.73;;;20.50;51.70;;;;;;5037536;28;20037;-62
2022/06/02 06:21:40;;;;;;;0.80;0.80;;;20.50;51.70;;;;;;5037574;28;20049;-63
2022/06/02 06:24:28;;;;;;;0.85;0.70;;;20.50;51.70;;;;;;5035323;28;20523;-62
2022/06/02 06:27:01;;;;;;;2.15;0.88;;;20.50;51.70;;;;;;5038016;28;20124;-61
2022/06/02 06:29:49;;;;;;;1.33;1.00;;;20.50;51.70;;;;;;5038365;28;20686;-63
2022/06/02 06:32:46;;;;;;;1.10;0.50;;;20.50;51.80;;;;;;5035750;28;20076;-63
2022/06/02 06:36:05;;;;;;;1.15;0.70;;;20.50;51.80;;;;;;5037550;28;20052;-63
2022/06/02 06:38:45;;;;;;;0.90;0.70;;;20.50;51.80;;;;;;4955789;28;20086;-62
2022/06/02 06:41:48;;;;;;;1.67;0.60;;;20.50;51.80;;;;;;4957986;28;20118;-63
2022/06/02 06:44:25;;;;;;;1.17;0.70;;;20.60;51.90;;;;;;5020695;28;20049;-62
2022/06/02 06:47:12;;;;;;;2.25;0.70;;;20.50;51.90;;;;;;5038011;28;20037;-63
2022/06/02 06:49:56;;;;;;;0.70;0.70;;;20.50;51.90;;;;;;5038674;28;20106;-63
2022/06/02 06:53:00;;;;;;;0.98;0.70;;;20.50;51.90;;;;;;5037350;28;20589;-62
2022/06/02 06:56:02;;;;;;;1.17;0.75;;;20.60;51.90;;;;;;5035834;28;20040;-63
2022/06/02 06:58:59;;;;;;;2.13;0.60;;;20.60;52.00;;;;;;5036032;28;20052;-63
2022/06/02 07:01:44;;;;;;;1.23;0.82;;;20.50;52.10;;;;;;5036543;28;20059;-61
2022/06/02 07:04:45;;;;;;;2.42;0.65;;;20.60;52.40;;;;;;5033683;28;20988;-62
2022/06/02 07:07:26;;;;;;;1.50;0.70;;;20.60;52.70;;;;;;5025166;28;20539;-62
2022/06/02 07:10:18;;;;;;;1.50;0.68;;;20.60;52.80;;;;;;5035220;28;20041;-62
2022/06/02 07:13:08;;;;;;;2.35;0.70;;;20.60;52.80;;;;;;5003847;28;20059;-62
2022/06/02 07:16:08;;;;;;;1.60;0.70;;;20.60;53.00;;;;;;5036353;28;20505;-62
2022/06/02 07:18:45;;;;;;;2.83;0.85;;;20.60;53.10;;;;;;5035262;28;20045;-62
2022/06/02 07:21:37;;;;;;;2.45;0.60;;;20.60;53.10;;;;;;5033869;28;20072;-63
2022/06/02 07:24:27;;;;;;;2.63;0.82;;;20.60;53.20;;;;;;5016301;28;20451;-63
2022/06/02 07:27:02;;;;;;;1.17;0.70;;;20.60;53.30;;;;;;5033689;28;20099;-64
2022/06/02 07:30:01;;;;;;;0.60;0.60;;;20.60;53.30;;;;;;5035162;28;20103;-65
2022/06/02 07:33:02;;;;;;;0.73;0.50;;;20.60;53.30;;;;;;5037189;28;20045;-62
2022/06/02 07:35:59;;;;;;;1.77;0.70;;;20.60;53.40;;;;;;5007458;28;20052;-63
2022/06/02 07:38:41;;;;;;;0.82;0.68;;;20.60;54.10;;;;;;5035284;28;20065;-62
2022/06/02 07:41:19;;;;;;;1.63;0.77;;;20.60;53.40;;;;;;5038406;28;20456;-62
2022/06/02 07:44:12;;;;;;;2.00;0.70;;;20.60;53.40;;;;;;5036146;28;20131;-63
2022/06/02 07:46:55;;;;;;;2.08;0.65;;;20.60;53.50;;;;;;5036126;28;20956;-62
2022/06/02 07:49:34;;;;;;;1.20;0.70;;;20.60;53.60;;;;;;5033600;28;20047;-62
2022/06/02 07:52:25;;;;;;;1.38;0.77;;;20.60;53.60;;;;;;5035259;28;20950;-61
2022/06/02 07:55:01;;;;;;;1.33;0.75;;;20.70;53.60;;;;;;5036521;28;20588;-64
2022/06/02 07:57:50;;;;;;;1.35;0.70;;;20.60;53.50;;;;;;5034361;28;20030;-60
2022/06/02 08:00:22;;;;;;;0.95;0.70;;;20.60;53.50;;;;;;5035382;28;20060;-60
2022/06/02 08:03:23;;;;;;;2.35;1.00;;;20.70;53.60;;;;;;5035691;28;20083;-60
2022/06/02 08:06:16;;;;;;;1.33;0.82;;;20.70;53.60;;;;;;5033220;28;20122;-61
2022/06/02 08:08:51;;;;;;;2.22;0.98;;;20.70;53.50;;;;;;5034676;28;20025;-61
2022/06/02 08:11:38;;;;;;;1.77;0.95;;;20.70;54.40;;;;;;5033820;28;20052;-63
2022/06/02 08:14:27;;;;;;;2.53;0.80;;;20.70;53.80;;;;;;5033217;28;20164;-61
2022/06/02 08:17:30;;;;;;;2.78;0.85;;;20.70;54.00;;;;;;5022860;28;20111;-61
2022/06/02 08:20:34;;;;;;;2.08;0.98;;;20.70;54.30;;;;;;5034273;28;20036;-61
2022/06/02 08:23:24;;;;;;;8.23;1.10;;;20.70;55.00;;;;;;5035962;28;20060;-61
2022/06/02 08:25:55;;;;;;;4.20;1.00;;;20.70;55.10;;;;;;5034012;28;20044;-61
2022/06/02 08:28:55;;;;;;;1.83;1.00;;;20.70;55.20;;;;;;5033886;28;20449;-60
2022/06/02 08:31:40;;;;;;;5.40;1.10;;;20.70;55.40;;;;;;5034697;28;20405;-60
2022/06/02 08:34:21;;;;;;;2.03;1.02;;;20.70;55.40;;;;;;5033453;28;20076;-60
2022/06/02 08:36:55;;;;;;;2.90;1.10;;;20.70;55.50;;;;;;5035632;28;20144;-60
2022/06/02 08:39:53;;;;;;;1.23;1.00;;;20.70;55.60;;;;;;5034220;28;20037;-61
2022/06/02 08:42:55;;;;;;;4.03;1.10;;;20.70;55.50;;;;;;5032512;28;20049;-60
2022/06/02 08:45:44;;;;;;;3.97;1.35;;;20.80;55.60;;;;;;5036694;28;20167;-59
2022/06/02 08:48:47;;;;;;;3.38;1.02;;;20.80;55.60;;;;;;5035355;28;20037;-62
2022/06/02 08:51:54;;;;;;;2.72;1.20;;;20.80;55.80;;;;;;5034492;28;20079;-60
2022/06/02 08:54:41;;;;;;;1.80;1.27;;;20.80;56.40;;;;;;5033570;28;20045;-62
2022/06/02 08:57:40;;;;;;;2.92;1.23;;;20.80;56.50;;;;;;5036021;28;20120;-61
2022/06/02 09:00:26;;;;;;;4.10;1.23;;;20.80;56.50;;;;;;5035489;28;20404;-62
2022/06/02 09:03:13;;;;;;;2.13;1.10;;;20.80;56.50;;;;;;5035740;28;20287;-60
2022/06/02 09:06:09;;;;;;;2.88;1.02;;;20.80;56.50;;;;;;5034652;28;20041;-62
2022/06/02 09:09:10;;;;;;;1.60;1.00;;;20.80;56.40;;;;;;5034850;28;20037;-61
2022/06/02 09:12:07;;;;;;;1.63;1.27;;;20.80;56.40;;;;;;5015966;28;20049;-60
2022/06/02 09:15:04;;;;;;;2.65;1.10;;;20.80;56.50;;;;;;5016511;28;20041;-60
2022/06/02 09:17:30;;;;;;;5.15;1.25;;;20.80;56.70;;;;;;5034111;28;20099;-60
2022/06/02 09:20:40;;;;;;;2.40;1.10;;;20.80;56.70;;;;;;5033196;28;20037;-60
2022/06/02 09:23:15;;;;;;;2.05;1.10;;;20.80;56.70;;;;;;5034341;28;20045;-61
2022/06/02 09:25:56;;;;;;;3.38;1.00;;;20.80;56.70;;;;;;5035905;28;20037;-61
2022/06/02 09:28:46;;;;;;;2.25;0.82;;;20.80;56.70;;;;;;5032781;28;20064;-61
2022/06/02 09:31:38;;;;;;;1.48;1.38;;;20.80;56.60;;;;;;5037764;28;20081;-59
2022/06/02 09:34:25;;;;;;;2.40;1.20;;;20.80;56.60;;;;;;5037530;28;20049;-60
2022/06/02 09:37:09;;;;;;;2.25;1.00;;;20.80;56.60;;;;;;5039729;28;20049;-63
2022/06/02 09:39:52;;;;;;;1.70;1.10;;;20.80;56.50;;;;;;5039126;28;20041;-60
2022/06/02 09:42:39;;;;;;;1.90;1.33;;;20.80;56.50;;;;;;5038550;28;20045;-60
2022/06/02 09:45:25;;;;;;;2.13;1.00;;;20.80;56.50;;;;;;5038339;28;20076;-61
2022/06/02 09:47:53;;;;;;;2.42;0.90;;;20.80;56.70;;;;;;5036233;28;20970;-60
2022/06/02 09:50:28;;;;;;;4.70;1.08;;;20.80;56.60;;;;;;5018361;28;20138;-61
2022/06/02 09:53:15;;;;;;;3.65;1.27;;;20.80;56.60;;;;;;5037936;28;20128;-61
2022/06/02 09:56:19;;;;;;;3.42;1.10;;;20.90;56.70;;;;;;5022471;28;20121;-59
2022/06/02 09:58:57;;;;;;;3.88;1.23;;;20.80;56.50;;;;;;5039448;28;20072;-60
2022/06/02 10:01:46;;;;;;;2.95;1.20;;;20.80;56.50;;;;;;5040268;28;20037;-60
2022/06/02 10:04:41;;;;;;;1.17;1.08;;;20.80;56.20;;;;;;5026271;28;20087;-60
2022/06/02 10:07:16;;;;;;;3.97;1.13;;;20.80;55.10;;;;;;5039427;28;20048;-60
2022/06/02 10:09:50;;;;;;;1.60;0.90;;;20.80;54.90;;;;;;5038851;28;20413;-60
2022/06/02 10:15:42;;;;;;;2.80;0.88;;;20.80;54.90;;;;;;5037214;28;20041;-60
2022/06/02 10:18:29;;;;;;;1.98;1.27;;;20.80;54.30;;;;;;5039053;28;20096;-62
2022/06/02 10:21:16;;;;;;;0.93;0.93;;;20.80;54.10;;;;;;5037824;28;20398;-61
2022/06/02 10:24:06;;;;;;;2.22;0.90;;;20.80;53.70;;;;;;5037448;28;20139;-61
2022/06/02 10:26:47;;;;;;;1.60;1.15;;;20.80;53.30;;;;;;5037688;28;20036;-60
2022/06/02 10:29:55;;;;;;;2.53;1.13;;;20.80;53.30;;;;;;5036546;28;20045;-59
2022/06/02 10:32:29;;;;;;;1.38;1.00;;;20.80;53.10;;;;;;5036980;28;20288;-59
2022/06/02 10:35:00;;;;;;;2.85;1.10;;;20.80;53.20;;;;;;5032805;28;20088;-58
2022/06/02 10:37:54;;;;;;;2.25;0.90;;;20.70;53.00;;;;;;5038753;28;20044;-58
2022/06/02 10:40:58;;;;;;;2.00;0.93;;;20.80;53.00;;;;;;5040279;28;20064;-62
2022/06/02 10:43:59;;;;;;;1.33;0.82;;;20.80;53.00;;;;;;5034771;28;20048;-60
2022/06/02 10:46:55;;;;;;;2.20;1.00;;;20.80;52.90;;;;;;5034640;28;20616;-60
2022/06/02 10:49:46;;;;;;;3.22;0.80;;;20.80;52.90;;;;;;5036989;28;20048;-61
2022/06/02 10:52:39;;;;;;;2.75;1.10;;;20.80;52.80;;;;;;5036601;28;20037;-62
2022/06/02 10:55:42;;;;;;;1.30;1.10;;;20.80;52.60;;;;;;5018771;28;20045;-59
2022/06/02 10:58:20;;;;;;;1.63;0.95;;;20.80;52.60;;;;;;5037685;28;20180;-61
2022/06/02 11:01:21;;;;;;;1.45;0.80;;;20.80;52.60;;;;;;5035059;28;20864;-60
2022/06/02 11:04:13;;;;;;;2.35;0.80;;;20.80;52.30;;;;;;5034266;28;20123;-60
2022/06/02 11:07:26;;;;;;;1.10;0.90;;;20.80;52.40;;;;;;5034811;28;20481;-61
2022/06/02 11:10:13;;;;;;;1.13;0.90;;;20.80;52.20;;;;;;4973203;28;20086;-60
2022/06/02 11:12:57;;;;;;;2.03;0.70;;;20.80;52.00;;;;;;5031754;28;20084;-61
2022/06/02 11:15:35;;;;;;;1.02;0.90;;;20.70;52.00;;;;;;5036604;28;20127;-60
2022/06/02 11:18:18;;;;;;;1.20;0.80;;;20.70;51.70;;;;;;5037521;28;20049;-60
2022/06/02 11:20:59;;;;;;;1.25;0.90;;;20.70;51.50;;;;;;5037103;28;20915;-60
2022/06/02 11:23:49;;;;;;;1.10;1.00;;;20.70;51.20;;;;;;5036730;28;20511;-60
2022/06/02 11:26:22;;;;;;;0.90;0.82;;;20.70;51.00;;;;;;5035778;28;20045;-60
2022/06/02 11:28:59;;;;;;;1.15;1.00;;;20.70;51.10;;;;;;5039199;28;20040;-59
2022/06/02 11:31:50;;;;;;;1.65;1.00;;;20.70;51.00;;;;;;5034809;28;20108;-59
2022/06/02 11:34:21;;;;;;;1.65;1.00;;;20.70;50.70;;;;;;5056141;28;20114;-60
2022/06/02 11:37:24;;;;;;;1.23;0.77;;;20.70;50.90;;;;;;5055727;28;20049;-61
2022/06/02 11:40:08;;;;;;;1.50;1.17;;;20.70;50.70;;;;;;5055175;28;20036;-59
2022/06/02 11:43:12;;;;;;;1.60;0.88;;;20.70;50.80;;;;;;5051190;28;20033;-60
2022/06/02 11:46:15;;;;;;;1.45;0.80;;;20.70;50.80;;;;;;5030294;28;20049;-59
2022/06/02 11:48:54;;;;;;;1.55;0.90;;;20.70;51.50;;;;;;5055376;28;20044;-60
2022/06/02 11:51:50;;;;;;;2.20;0.90;;;20.70;50.80;;;;;;5052441;28;20125;-60
2022/06/02 11:54:39;;;;;;;1.88;1.00;;;20.70;50.80;;;;;;5055418;28;20051;-62
2022/06/02 11:57:17;;;;;;;2.13;0.88;;;20.70;50.70;;;;;;5053700;28;20083;-61
2022/06/02 12:00:01;;;;;;;2.40;0.90;;;20.70;50.80;;;;;;5054747;28;20040;-60
2022/06/02 12:02:48;;;;;;;1.95;0.60;;;20.70;50.80;;;;;;5037477;28;20111;-61
2022/06/02 12:05:32;;;;;;;1.85;1.00;;;20.70;50.80;;;;;;5055581;28;20044;-59
2022/06/02 12:08:35;;;;;;;1.85;0.93;;;20.70;50.70;;;;;;5055645;28;20032;-61
2022/06/02 12:11:04;;;;;;;4.43;0.80;;;20.70;50.70;;;;;;5054500;28;20087;-61
2022/06/02 12:13:40;;;;;;;0.95;0.85;;;20.70;50.80;;;;;;5054251;28;20269;-59
2022/06/02 12:16:21;;;;;;;1.20;0.90;;;20.60;50.80;;;;;;5056058;28;20062;-63
2022/06/02 12:18:47;;;;;;;1.55;0.80;;;20.70;50.90;;;;;;5055016;28;20067;-60
2022/06/02 12:21:40;;;;;;;0.98;0.80;;;20.70;50.90;;;;;;5054068;28;20347;-62
2022/06/02 12:24:49;;;;;;;1.13;0.90;;;20.70;50.90;;;;;;5051197;28;20087;-60
2022/06/02 12:27:35;;;;;;;1.63;0.75;;;20.70;50.90;;;;;;5054258;28;20044;-59
2022/06/02 12:30:26;;;;;;;2.42;0.70;;;20.70;50.90;;;;;;5055146;28;20210;-60
2022/06/02 12:33:26;;;;;;;1.08;0.80;;;20.70;51.00;;;;;;5054597;28;20056;-62
2022/06/02 12:36:19;;;;;;;0.77;0.70;;;20.70;51.00;;;;;;5054830;28;20044;-60
2022/06/02 12:39:19;;;;;;;1.15;0.80;;;20.70;51.10;;;;;;5054757;28;20131;-61
2022/06/02 12:42:13;;;;;;;1.27;0.77;;;20.70;51.00;;;;;;5054510;28;20033;-59
2022/06/02 12:44:57;;;;;;;0.88;0.85;;;20.70;51.00;;;;;;5053456;28;20036;-60
2022/06/02 12:47:57;;;;;;;1.88;1.10;;;20.60;51.00;;;;;;5054584;28;20365;-60
2022/06/02 12:50:51;;;;;;;1.15;1.00;;;20.70;51.00;;;;;;5055669;28;20062;-61
2022/06/02 12:53:35;;;;;;;1.17;1.08;;;20.60;51.00;;;;;;5053695;28;20066;-61
2022/06/02 12:56:19;;;;;;;0.95;0.80;;;20.70;51.00;;;;;;5053273;28;20397;-59
2022/06/02 12:59:06;;;;;;;0.70;0.70;;;20.70;51.10;;;;;;5038216;28;20083;-60
2022/06/02 13:01:35;;;;;;;0.70;0.70;;;20.70;51.10;;;;;;5042160;28;20041;-60
2022/06/02 13:04:09;;;;;;;1.25;0.90;;;20.70;51.10;;;;;;5053621;28;20102;-60
2022/06/02 13:07:06;;;;;;;0.93;0.85;;;20.70;51.20;;;;;;5054255;28;20033;-62
2022/06/02 13:09:53;;;;;;;1.67;0.90;;;20.70;51.00;;;;;;5053408;28;20044;-59
2022/06/02 13:12:51;;;;;;;1.75;0.82;;;20.70;50.90;;;;;;5054392;28;20595;-60
2022/06/02 13:15:34;;;;;;;0.90;0.80;;;20.70;51.00;;;;;;5057427;28;20098;-61
2022/06/02 13:18:06;;;;;;;2.15;1.23;;;20.70;51.00;;;;;;5055060;28;20044;-59
2022/06/02 13:20:38;;;;;;;2.83;1.08;;;20.70;51.20;;;;;;5050021;28;20275;-59
2022/06/02 13:23:41;;;;;;;4.90;0.90;;;20.60;51.20;;;;;;5051905;28;20041;-60
2022/06/02 13:26:33;;;;;;;6.43;0.93;;;20.70;51.30;;;;;;5053594;28;20167;-60
2022/06/02 13:29:28;;;;;;;1.17;0.95;;;20.70;51.30;;;;;;5053201;28;20051;-59
2022/06/02 13:32:14;;;;;;;1.60;1.10;;;20.70;51.30;;;;;;5052631;28;20044;-59
2022/06/02 13:35:28;;;;;;;1.00;0.90;;;20.70;51.30;;;;;;5054474;28;20057;-60
2022/06/02 13:38:18;;;;;;;3.00;0.80;;;20.70;51.30;;;;;;5033717;28;20045;-60
2022/06/02 13:41:04;;;;;;;1.02;0.80;;;20.60;51.20;;;;;;5050862;28;20144;-60
2022/06/02 13:44:07;;;;;;;1.08;0.77;;;20.70;51.30;;;;;;5051740;28;20121;-59
2022/06/02 13:47:09;;;;;;;1.67;0.77;;;20.70;51.30;;;;;;5051352;28;20101;-64
2022/06/02 13:49:46;;;;;;;2.03;0.85;;;20.70;51.30;;;;;;5049912;28;20037;-61
2022/06/02 13:52:36;;;;;;;0.73;0.68;;;20.70;51.30;;;;;;5051689;28;20343;-61
2022/06/02 13:58:21;;;;;;;1.75;1.23;;;20.70;51.30;;;;;;5054085;28;20051;-61
2022/06/02 14:00:59;;;;;;;2.03;0.85;;;20.70;51.40;;;;;;5053799;28;20033;-60
2022/06/02 14:03:49;;;;;;;1.15;0.70;;;20.60;51.30;;;;;;5052831;28;20051;-60
2022/06/02 14:06:24;;;;;;;1.67;1.00;;;20.70;51.20;;;;;;5053415;28;20048;-60
2022/06/02 14:09:11;;;;;;;3.63;1.00;;;20.70;51.20;;;;;;5050583;28;20099;-60
2022/06/02 14:11:56;;;;;;;3.22;1.77;;;20.70;51.20;;;;;;5034817;28;20037;-60
2022/06/02 14:14:27;;;;;;;7.78;2.90;;;20.60;51.40;;;;;;5051943;28;20056;-61
2022/06/02 14:17:02;;;;;;;14.05;5.50;;;20.70;51.70;;;;;;5057017;28;20044;-60
2022/06/02 14:19:39;;;;;;;29.27;8.38;;;20.70;51.90;;;;;;5057013;28;20063;-60
2022/06/02 14:22:20;;;;;;;33.78;13.52;;;20.70;52.50;;;;;;5057272;28;20116;-61
2022/06/02 14:25:15;;;;;;;67.32;28.63;;;20.70;53.40;;;;;;5042332;28;20036;-61
2022/06/02 14:28:05;;;;;;;71.00;31.52;;;20.70;54.00;;;;;;5036195;28;20051;-61
2022/06/02 14:30:55;;;;;;;53.05;30.38;;;20.80;54.50;;;;;;5057140;28;20421;-61
2022/06/02 14:33:33;;;;;;;43.23;28.43;;;20.80;54.40;;;;;;5054803;28;20190;-63
2022/06/02 14:36:29;;;;;;;35.72;19.77;;;20.80;54.30;;;;;;5055850;28;20169;-61